createdAt,value
2022-12-24T00:01:57.598Z,10.49
2022-12-24T00:04:27.361Z,10.43
2022-12-24T00:06:56.720Z,10.52
2022-12-24T00:09:26.552Z,10.41
2022-12-24T00:11:56.230Z,10.27
2022-12-24T00:14:26.492Z,10.51
2022-12-24T00:16:56.314Z,10.61
2022-12-24T00:19:25.683Z,10.05
2022-12-24T00:21:55.342Z,10.38
2022-12-24T00:24:24.990Z,10.61
2022-12-24T00:26:54.417Z,10.44
2022-12-24T00:29:24.074Z,10.53
2022-12-24T00:31:54.001Z,10.38
2022-12-24T00:34:26.027Z,10.62
2022-12-24T00:36:55.870Z,10.23
2022-12-24T00:39:25.483Z,9.86
2022-12-24T00:41:54.904Z,10.07
2022-12-24T00:44:24.598Z,10.18
2022-12-24T00:46:54.172Z,10.29
2022-12-24T00:49:23.786Z,10.35
2022-12-24T00:51:53.965Z,10.37
2022-12-24T00:54:23.678Z,10.31
2022-12-24T00:56:53.346Z,10.38
2022-12-24T00:59:23.082Z,10.26
2022-12-24T01:01:55.961Z,9.98
2022-12-24T01:04:46.507Z,10.24
2022-12-24T01:07:18.515Z,10.00
2022-12-24T01:09:49.690Z,10.29
2022-12-24T01:12:20.341Z,10.30
2022-12-24T01:14:51.144Z,10.07
2022-12-24T01:17:21.653Z,10.14
2022-12-24T01:19:52.049Z,10.11
2022-12-24T01:22:23.318Z,10.21
2022-12-24T01:24:53.835Z,10.20
2022-12-24T01:27:24.213Z,9.86
2022-12-24T01:29:54.557Z,10.04
2022-12-24T01:32:24.557Z,10.01
2022-12-24T01:34:54.861Z,10.23
2022-12-24T01:37:25.575Z,10.18
2022-12-24T01:40:15.569Z,10.24
2022-12-24T01:43:08.530Z,9.93
2022-12-24T01:45:47.358Z,9.98
2022-12-24T01:48:20.470Z,10.11
2022-12-24T01:50:57.756Z,9.64
2022-12-24T01:53:28.404Z,10.03
2022-12-24T01:55:59.208Z,10.01
2022-12-24T01:58:29.633Z,10.06
2022-12-24T02:00:59.910Z,10.22
2022-12-24T02:03:30.475Z,10.11
2022-12-24T02:06:02.067Z,10.03
2022-12-24T02:08:41.378Z,10.11
2022-12-24T02:11:23.166Z,10.23
2022-12-24T02:14:00.430Z,10.04
2022-12-24T02:16:36.423Z,9.96
2022-12-24T02:19:29.586Z,9.44
2022-12-24T02:22:04.765Z,9.89
2022-12-24T02:24:58.996Z,9.59
2022-12-24T02:28:20.411Z,9.62
2022-12-24T02:31:05.824Z,9.80
2022-12-24T02:33:40.513Z,9.54
2022-12-24T02:36:27.399Z,9.83
2022-12-24T02:39:04.807Z,9.97
2022-12-24T02:42:01.020Z,10.01
2022-12-24T02:44:33.656Z,9.83
2022-12-24T02:47:04.945Z,10.30
2022-12-24T02:49:34.906Z,10.17
2022-12-24T02:52:05.556Z,10.03
2022-12-24T02:54:35.729Z,9.91
2022-12-24T02:57:08.475Z,9.60
2022-12-24T02:59:54.400Z,9.86
2022-12-24T03:02:42.462Z,9.97
2022-12-24T03:05:38.182Z,10.15
2022-12-24T03:08:18.558Z,10.20
2022-12-24T03:10:58.497Z,10.03
2022-12-24T03:13:30.434Z,10.08
2022-12-24T03:16:00.993Z,10.05
2022-12-24T03:18:32.265Z,10.21
2022-12-24T03:21:32.352Z,10.12
2022-12-24T03:24:02.991Z,9.85
2022-12-24T03:26:35.971Z,9.98
2022-12-24T03:29:10.244Z,10.30
2022-12-24T03:31:45.580Z,10.06
2022-12-24T03:34:17.670Z,10.21
2022-12-24T03:36:49.359Z,10.30
2022-12-24T03:39:20.156Z,10.29
2022-12-24T03:41:50.203Z,10.45
2022-12-24T03:44:20.596Z,10.23
2022-12-24T03:46:50.467Z,10.35
2022-12-24T03:49:20.732Z,10.54
2022-12-24T03:51:50.849Z,10.47
2022-12-24T03:54:20.981Z,10.55
2022-12-24T03:56:51.140Z,10.53
2022-12-24T03:59:22.116Z,10.51
2022-12-24T04:01:52.401Z,10.49
2022-12-24T04:04:22.710Z,10.50
2022-12-24T04:06:52.910Z,10.55
2022-12-24T04:09:23.484Z,10.06
2022-12-24T04:11:53.443Z,10.07
2022-12-24T04:14:23.276Z,10.10
2022-12-24T04:16:53.698Z,10.38
2022-12-24T04:19:23.847Z,10.36
2022-12-24T04:21:53.990Z,10.23
2022-12-24T04:24:24.496Z,10.55
2022-12-24T04:26:54.789Z,10.62
2022-12-24T04:29:24.752Z,10.52
2022-12-24T04:31:55.067Z,10.43
2022-12-24T04:34:25.433Z,10.65
2022-12-24T04:36:55.518Z,10.60
2022-12-24T04:39:26.098Z,10.79
2022-12-24T04:41:56.166Z,10.88
2022-12-24T04:44:26.530Z,11.03
2022-12-24T04:46:56.732Z,10.78
2022-12-24T04:49:26.796Z,11.04
2022-12-24T04:51:56.696Z,11.19
2022-12-24T04:54:27.007Z,10.90
2022-12-24T04:56:57.016Z,11.07
2022-12-24T04:59:27.253Z,11.11
2022-12-24T05:01:57.571Z,11.15
2022-12-24T05:04:28.023Z,11.04
2022-12-24T05:06:57.990Z,10.93
2022-12-24T05:09:27.943Z,11.01
2022-12-24T05:11:58.572Z,11.04
2022-12-24T05:14:28.700Z,11.01
2022-12-24T05:16:59.070Z,10.92
2022-12-24T05:19:29.673Z,10.97
2022-12-24T05:22:18.228Z,11.10
2022-12-24T05:25:06.392Z,10.91
2022-12-24T05:27:36.627Z,11.23
2022-12-24T05:30:07.445Z,11.27
2022-12-24T05:32:38.154Z,11.23
2022-12-24T05:38:10.919Z,11.28
2022-12-24T05:40:40.645Z,11.64
2022-12-24T05:43:10.320Z,11.65
2022-12-24T05:45:39.809Z,11.56
2022-12-24T05:48:09.321Z,11.55
2022-12-24T05:50:41.793Z,11.74
2022-12-24T05:53:12.253Z,11.70
2022-12-24T05:55:41.756Z,11.70
2022-12-24T05:58:11.138Z,11.99
2022-12-24T06:00:40.911Z,11.94
2022-12-24T06:03:10.502Z,12.05
2022-12-24T06:05:42.527Z,11.85
2022-12-24T06:08:11.992Z,11.89
2022-12-24T06:10:41.623Z,11.89
2022-12-24T06:13:11.193Z,11.97
2022-12-24T06:15:40.713Z,12.02
2022-12-24T06:18:10.390Z,11.99
2022-12-24T06:20:40.082Z,12.11
2022-12-24T06:23:09.395Z,12.18
2022-12-24T06:25:39.024Z,12.37
2022-12-24T06:28:08.500Z,12.42
2022-12-24T06:30:38.010Z,12.57
2022-12-24T06:33:07.823Z,12.43
2022-12-24T06:35:37.082Z,12.47
2022-12-24T06:38:06.637Z,12.77
2022-12-24T06:40:36.227Z,12.81
2022-12-24T06:43:05.713Z,12.86
2022-12-24T06:45:35.430Z,12.93
2022-12-24T06:48:05.285Z,12.92
2022-12-24T06:50:38.075Z,12.83
2022-12-24T06:53:08.086Z,13.23
2022-12-24T06:55:38.086Z,13.32
2022-12-24T06:58:07.830Z,13.30
2022-12-24T07:00:37.643Z,12.93
2022-12-24T07:03:07.372Z,13.28
2022-12-24T07:05:36.759Z,13.38
2022-12-24T07:08:06.346Z,13.21
2022-12-24T07:10:36.106Z,13.14
2022-12-24T07:13:05.589Z,13.29
2022-12-24T07:15:35.264Z,12.72
2022-12-24T07:18:04.972Z,13.16
2022-12-24T07:20:34.328Z,13.50
2022-12-24T07:23:03.968Z,13.62
2022-12-24T07:25:33.618Z,13.70
2022-12-24T07:28:02.924Z,13.31
2022-12-24T07:30:32.544Z,13.57
2022-12-24T07:33:01.857Z,13.80
2022-12-24T07:35:31.257Z,13.89
2022-12-24T07:38:00.758Z,13.75
2022-12-24T07:40:30.221Z,13.91
2022-12-24T07:42:59.767Z,13.62
2022-12-24T07:45:29.190Z,13.73
2022-12-24T07:47:59.131Z,13.64
2022-12-24T07:50:28.882Z,13.15
2022-12-24T07:52:58.318Z,13.61
2022-12-24T07:55:28.209Z,13.72
2022-12-24T07:57:57.858Z,13.45
2022-12-24T08:00:27.404Z,13.54
2022-12-24T08:02:57.144Z,13.67
2022-12-24T08:05:27.679Z,13.74
2022-12-24T08:07:57.432Z,13.66
2022-12-24T08:10:26.985Z,13.75
2022-12-24T08:12:56.470Z,13.81
2022-12-24T08:15:25.851Z,13.75
2022-12-24T08:17:55.174Z,13.77
2022-12-24T08:20:24.751Z,13.53
2022-12-24T08:22:54.918Z,14.07
2022-12-24T08:25:24.462Z,14.17
2022-12-24T08:27:53.787Z,14.04
2022-12-24T08:30:23.283Z,14.14
2022-12-24T08:32:52.762Z,14.07
2022-12-24T08:35:22.763Z,14.23
2022-12-24T08:37:52.387Z,14.30
2022-12-24T08:40:22.267Z,14.31
2022-12-24T08:42:52.180Z,14.33
2022-12-24T08:45:22.165Z,14.59
2022-12-24T08:47:51.704Z,14.49
2022-12-24T08:50:21.207Z,14.61
2022-12-24T08:52:51.153Z,14.55
2022-12-24T08:55:20.899Z,14.44
2022-12-24T08:57:50.401Z,14.51
2022-12-24T09:00:20.571Z,14.51
2022-12-24T09:02:50.155Z,14.58
2022-12-24T09:05:20.017Z,14.48
2022-12-24T09:07:49.642Z,14.23
2022-12-24T09:10:19.095Z,14.60
2022-12-24T09:12:49.094Z,14.55
2022-12-24T09:15:18.810Z,14.69
2022-12-24T09:17:48.335Z,14.73
2022-12-24T09:20:17.759Z,14.79
2022-12-24T09:22:47.492Z,14.82
2022-12-24T09:25:18.039Z,14.59
2022-12-24T09:27:48.271Z,14.65
2022-12-24T09:30:18.126Z,14.65
2022-12-24T09:32:47.795Z,14.82
2022-12-24T09:35:17.188Z,14.51
2022-12-24T09:37:46.919Z,14.61
2022-12-24T09:40:27.036Z,14.73
2022-12-24T09:42:56.794Z,14.60
2022-12-24T09:45:39.392Z,14.78
2022-12-24T09:48:25.149Z,14.74
2022-12-24T09:51:18.128Z,14.80
2022-12-24T09:54:01.813Z,14.76
2022-12-24T09:56:46.298Z,14.72
2022-12-24T09:59:19.302Z,14.68
2022-12-24T10:01:50.872Z,14.57
2022-12-24T10:04:24.409Z,14.47
2022-12-24T10:07:24.187Z,14.62
2022-12-24T10:10:29.623Z,14.74
2022-12-24T10:13:26.646Z,14.69
2022-12-24T10:16:09.445Z,14.71
2022-12-24T10:18:52.260Z,14.73
2022-12-24T10:21:58.399Z,14.61
2022-12-24T10:24:48.108Z,14.67
2022-12-24T10:27:23.242Z,14.59
2022-12-24T10:30:02.803Z,14.54
2022-12-24T10:32:35.762Z,14.56
2022-12-24T10:35:17.373Z,14.51
2022-12-24T10:37:50.398Z,14.54
2022-12-24T10:40:45.940Z,14.57
2022-12-24T10:43:17.342Z,14.51
2022-12-24T10:45:54.306Z,14.40
2022-12-24T10:48:50.478Z,14.53
2022-12-24T10:51:50.219Z,14.50
2022-12-24T10:54:26.997Z,14.39
2022-12-24T10:57:03.736Z,14.39
2022-12-24T10:59:53.556Z,14.34
2022-12-24T11:02:37.892Z,14.35
2022-12-24T11:05:32.836Z,14.34
2022-12-24T11:08:18.717Z,14.20
2022-12-24T11:11:02.398Z,14.26
2022-12-24T11:13:47.637Z,14.26
2022-12-24T11:16:28.315Z,14.24
2022-12-24T11:19:03.085Z,14.10
2022-12-24T11:21:34.747Z,14.08
2022-12-24T11:24:10.396Z,14.11
2022-12-24T11:26:40.733Z,14.07
2022-12-24T11:29:26.626Z,14.02
2022-12-24T11:32:19.277Z,13.99
2022-12-24T11:34:49.124Z,13.89
2022-12-24T11:37:26.235Z,13.85
2022-12-24T11:40:01.665Z,13.80
2022-12-24T11:42:41.872Z,13.79
2022-12-24T11:45:27.426Z,13.80
2022-12-24T11:47:57.977Z,13.70
2022-12-24T11:50:36.815Z,13.70
2022-12-24T11:53:06.306Z,13.65
2022-12-24T11:55:53.969Z,13.72
2022-12-24T11:58:50.627Z,13.67
2022-12-24T12:01:48.175Z,13.58
2022-12-24T12:04:26.092Z,13.55
2022-12-24T12:07:17.238Z,13.50
2022-12-24T12:10:01.334Z,13.44
2022-12-24T12:12:36.476Z,13.41
2022-12-24T12:15:17.308Z,13.28
2022-12-24T12:17:46.823Z,13.23
2022-12-24T12:20:57.943Z,13.27
2022-12-24T12:23:38.145Z,13.19
2022-12-24T12:26:17.141Z,13.16
2022-12-24T12:29:01.901Z,13.20
2022-12-24T12:31:37.384Z,13.15
2022-12-24T12:34:20.390Z,13.26
2022-12-24T12:37:14.225Z,13.05
2022-12-24T12:39:44.845Z,13.05
2022-12-24T12:42:36.499Z,13.11
2022-12-24T12:45:47.885Z,13.01
2022-12-24T12:48:23.648Z,12.93
2022-12-24T12:51:17.159Z,12.89
2022-12-24T12:53:55.515Z,12.86
2022-12-24T12:56:35.086Z,12.93
2022-12-24T12:59:18.763Z,12.88
2022-12-24T13:01:51.161Z,12.74
2022-12-24T13:05:18.114Z,12.86
2022-12-24T13:08:14.729Z,12.82
2022-12-24T13:11:25.421Z,12.74
2022-12-24T13:14:06.811Z,12.66
2022-12-24T13:16:50.763Z,12.65
2022-12-24T13:20:02.251Z,12.66
2022-12-24T13:22:32.522Z,12.45
2022-12-24T13:25:02.696Z,12.44
2022-12-24T13:27:36.377Z,12.52
2022-12-24T13:30:41.985Z,12.60
2022-12-24T13:33:35.653Z,12.47
2022-12-24T13:36:07.640Z,12.16
2022-12-24T13:38:50.782Z,12.42
2022-12-24T13:41:42.253Z,12.46
2022-12-24T13:44:15.741Z,12.37
2022-12-24T13:47:00.152Z,12.25
2022-12-24T13:49:46.283Z,12.14
2022-12-24T13:52:24.587Z,11.99
2022-12-24T13:55:00.575Z,12.08
2022-12-24T13:57:46.177Z,12.05
2022-12-24T14:00:25.981Z,12.14
2022-12-24T14:03:08.754Z,12.10
2022-12-24T14:05:38.327Z,12.22
2022-12-24T14:08:13.839Z,12.17
2022-12-24T14:11:13.001Z,12.13
2022-12-24T14:13:43.238Z,12.03
2022-12-24T14:16:27.341Z,12.02
2022-12-24T14:19:11.791Z,12.05
2022-12-24T14:22:06.648Z,11.99
2022-12-24T14:24:40.063Z,11.97
2022-12-24T14:27:34.094Z,11.94
2022-12-24T14:30:09.864Z,11.87
2022-12-24T14:32:42.594Z,11.92
2022-12-24T14:35:37.239Z,11.91
2022-12-24T14:38:15.615Z,11.82
2022-12-24T14:41:11.277Z,11.90
2022-12-24T14:44:08.795Z,11.95
2022-12-24T14:47:03.564Z,11.96
2022-12-24T14:50:18.568Z,11.95
2022-12-24T14:53:11.894Z,11.93
2022-12-24T14:55:49.867Z,11.89
2022-12-24T14:58:38.651Z,11.99
2022-12-24T15:01:30.541Z,12.02
2022-12-24T15:04:13.040Z,11.94
2022-12-24T15:06:54.602Z,11.86
2022-12-24T15:09:30.990Z,11.90
2022-12-24T15:12:06.808Z,11.81
2022-12-24T15:14:49.038Z,11.83
2022-12-24T15:17:23.020Z,11.77
2022-12-24T15:19:57.944Z,11.75
2022-12-24T15:22:33.087Z,11.77
2022-12-24T15:25:04.587Z,11.72
2022-12-24T15:27:40.472Z,11.76
2022-12-24T15:30:23.040Z,11.79
2022-12-24T15:32:59.628Z,11.67
2022-12-24T15:35:49.214Z,11.75
2022-12-24T15:38:36.318Z,11.71
2022-12-24T15:41:30.616Z,11.67
2022-12-24T15:44:05.318Z,11.64
2022-12-24T15:46:36.748Z,11.52
2022-12-24T15:49:07.180Z,11.46
2022-12-24T15:51:40.877Z,11.50
2022-12-24T15:54:19.491Z,11.43
2022-12-24T15:56:50.958Z,11.28
2022-12-24T15:59:38.528Z,11.28
2022-12-24T16:02:34.664Z,11.33
2022-12-24T16:05:31.324Z,11.30
2022-12-24T16:08:27.466Z,11.24
2022-12-24T16:11:19.946Z,11.14
2022-12-24T16:13:53.413Z,11.22
2022-12-24T16:16:33.879Z,11.13
2022-12-24T16:19:12.067Z,11.12
2022-12-24T16:21:47.093Z,11.10
2022-12-24T16:24:33.224Z,11.14
2022-12-24T16:27:03.588Z,11.09
2022-12-24T16:29:35.203Z,11.05
2022-12-24T16:32:05.777Z,11.06
2022-12-24T16:34:36.424Z,11.04
2022-12-24T16:37:12.753Z,10.92
2022-12-24T16:39:49.900Z,10.97
2022-12-24T16:42:39.215Z,10.88
2022-12-24T16:45:15.260Z,10.79
2022-12-24T16:47:48.363Z,10.76
2022-12-24T16:50:19.910Z,10.77
2022-12-24T16:52:53.314Z,10.84
2022-12-24T16:55:23.639Z,10.87
2022-12-24T16:57:56.920Z,10.93
2022-12-24T17:00:30.196Z,10.96
2022-12-24T17:03:04.653Z,10.82
2022-12-24T17:05:43.057Z,10.94
2022-12-24T17:08:15.114Z,10.88
2022-12-24T17:10:58.352Z,10.92
2022-12-24T17:13:39.797Z,10.85
2022-12-24T17:16:12.239Z,10.89
2022-12-24T17:18:43.012Z,10.84
2022-12-24T17:21:22.717Z,10.88
2022-12-24T17:23:55.734Z,10.82
2022-12-24T17:26:26.320Z,10.78
2022-12-24T17:28:57.832Z,10.79
2022-12-24T17:31:37.669Z,10.83
2022-12-24T17:34:11.054Z,10.79
2022-12-24T17:36:41.492Z,10.70
2022-12-24T17:39:11.894Z,10.62
2022-12-24T17:41:43.652Z,10.63
2022-12-24T17:44:22.846Z,10.65
2022-12-24T17:46:54.766Z,10.64
2022-12-24T17:49:26.380Z,10.59
2022-12-24T17:51:58.454Z,10.55
2022-12-24T17:54:33.053Z,10.53
2022-12-24T17:57:07.549Z,10.57
2022-12-24T17:59:39.145Z,10.54
2022-12-24T18:02:11.449Z,10.60
2022-12-24T18:04:43.020Z,10.64
2022-12-24T18:07:19.056Z,10.61
2022-12-24T18:09:53.425Z,10.65
2022-12-24T18:12:23.822Z,10.55
2022-12-24T18:14:54.049Z,10.52
2022-12-24T18:17:24.567Z,10.48
2022-12-24T18:19:57.793Z,10.36
2022-12-24T18:22:28.426Z,10.36
2022-12-24T18:24:58.639Z,10.37
2022-12-24T18:27:28.932Z,10.39
2022-12-24T18:30:00.400Z,10.40
2022-12-24T18:32:30.736Z,10.42
2022-12-24T18:35:01.126Z,10.42
2022-12-24T18:37:34.338Z,10.40
2022-12-24T18:40:05.858Z,10.43
2022-12-24T18:42:36.365Z,10.41
2022-12-24T18:45:06.855Z,10.43
2022-12-24T18:47:36.850Z,10.44
2022-12-24T18:50:07.026Z,10.44
2022-12-24T18:52:36.964Z,10.40
2022-12-24T18:55:06.640Z,10.39
2022-12-24T18:57:36.633Z,10.32
2022-12-24T19:00:06.754Z,10.37
2022-12-24T19:02:36.467Z,10.36
2022-12-24T19:05:06.568Z,10.37
2022-12-24T19:07:36.706Z,10.34
2022-12-24T19:10:06.525Z,10.29
2022-12-24T19:12:36.539Z,10.34
2022-12-24T19:15:07.785Z,10.35
2022-12-24T19:17:37.678Z,10.27
2022-12-24T19:20:09.348Z,10.31
2022-12-24T19:22:39.008Z,10.36
2022-12-24T19:25:08.965Z,10.39
2022-12-24T19:27:38.259Z,10.33
2022-12-24T19:30:08.690Z,10.34
2022-12-24T19:32:39.012Z,10.33
2022-12-24T19:35:08.920Z,10.32
2022-12-24T19:37:38.449Z,10.30
2022-12-24T19:40:09.253Z,10.31
2022-12-24T19:42:38.722Z,10.25
2022-12-24T19:45:11.775Z,10.22
2022-12-24T19:47:41.207Z,10.14
2022-12-24T19:50:11.263Z,10.12
2022-12-24T19:52:40.841Z,10.08
2022-12-24T19:55:11.897Z,10.10
2022-12-24T19:57:41.408Z,10.06
2022-12-24T20:00:11.836Z,10.09
2022-12-24T20:02:41.378Z,10.12
2022-12-24T20:05:11.050Z,10.16
2022-12-24T20:07:40.502Z,10.12
2022-12-24T20:10:10.883Z,10.14
2022-12-24T20:12:40.515Z,10.13
2022-12-24T20:15:10.475Z,10.16
2022-12-24T20:17:40.060Z,10.07
2022-12-24T20:20:10.187Z,10.21
2022-12-24T20:22:39.862Z,10.00
2022-12-24T20:25:10.410Z,9.86
2022-12-24T20:27:40.258Z,9.47
2022-12-24T20:30:10.457Z,9.59
2022-12-24T20:32:40.015Z,9.44
2022-12-24T20:35:10.123Z,9.43
2022-12-24T20:37:45.746Z,9.50
2022-12-24T20:40:16.510Z,9.48
2022-12-24T20:42:46.063Z,9.55
2022-12-24T20:45:15.745Z,9.68
2022-12-24T20:47:47.629Z,9.84
2022-12-24T20:50:17.571Z,9.80
2022-12-24T20:52:47.251Z,9.90
2022-12-24T20:55:18.406Z,9.97
2022-12-24T20:57:51.008Z,10.04
2022-12-24T21:00:21.093Z,10.00
2022-12-24T21:02:50.883Z,9.98
2022-12-24T21:05:21.582Z,10.05
2022-12-24T21:07:51.022Z,10.14
2022-12-24T21:10:20.576Z,10.19
2022-12-24T21:12:58.155Z,10.27
2022-12-24T21:15:31.102Z,10.32
2022-12-24T21:18:01.842Z,10.27
2022-12-24T21:20:31.756Z,10.24
2022-12-24T21:23:02.872Z,10.31
2022-12-24T21:25:32.386Z,10.24
2022-12-24T21:28:01.918Z,10.26
2022-12-24T21:30:33.328Z,10.24
2022-12-24T21:33:02.845Z,10.31
2022-12-24T21:35:32.361Z,10.29
2022-12-24T21:38:01.817Z,10.15
2022-12-24T21:40:31.713Z,10.09
2022-12-24T21:43:01.265Z,10.21
2022-12-24T21:45:30.851Z,10.15
2022-12-24T21:48:20.286Z,10.20
2022-12-24T21:50:59.245Z,10.29
2022-12-24T21:53:47.428Z,10.11
2022-12-24T21:56:16.825Z,9.80
2022-12-24T21:58:46.532Z,9.96
2022-12-24T22:01:16.094Z,10.12
2022-12-24T22:03:48.872Z,10.09
2022-12-24T22:06:36.958Z,10.14
2022-12-24T22:09:24.607Z,10.06
2022-12-24T22:11:55.162Z,10.02
2022-12-24T22:14:24.833Z,10.02
2022-12-24T22:16:54.313Z,10.12
2022-12-24T22:19:23.705Z,10.10
2022-12-24T22:21:53.415Z,10.12
2022-12-24T22:24:22.940Z,10.11
2022-12-24T22:26:52.389Z,9.81
2022-12-24T22:29:21.804Z,9.71
2022-12-24T22:31:51.462Z,9.82
2022-12-24T22:34:20.761Z,9.88
2022-12-24T22:36:50.337Z,9.88
2022-12-24T22:39:20.101Z,9.72
2022-12-24T22:41:49.572Z,9.78
2022-12-24T22:44:19.207Z,9.96
2022-12-24T22:46:48.773Z,9.53
2022-12-24T22:49:18.051Z,9.47
2022-12-24T22:51:47.724Z,9.24
2022-12-24T22:54:17.167Z,9.23
2022-12-24T22:56:47.113Z,9.20
2022-12-24T22:59:16.818Z,9.38
2022-12-24T23:01:48.440Z,9.36
2022-12-24T23:04:18.197Z,9.07
2022-12-24T23:06:47.720Z,9.32
2022-12-24T23:09:18.577Z,9.27
2022-12-24T23:11:48.281Z,9.54
2022-12-24T23:14:40.589Z,9.53
2022-12-24T23:17:10.864Z,9.42
2022-12-24T23:19:40.741Z,9.22
2022-12-24T23:22:11.689Z,9.31
2022-12-24T23:24:42.572Z,9.38
2022-12-24T23:27:12.182Z,9.58
2022-12-24T23:29:42.445Z,9.28
2022-12-24T23:32:11.813Z,9.54
2022-12-24T23:34:41.736Z,9.34
2022-12-24T23:37:11.124Z,9.19
2022-12-24T23:39:40.802Z,9.44
2022-12-24T23:42:10.394Z,9.46
2022-12-24T23:44:39.794Z,9.72
2022-12-24T23:47:09.862Z,9.65
2022-12-24T23:49:39.227Z,9.73
2022-12-24T23:52:08.706Z,9.55
2022-12-24T23:54:38.430Z,9.38
2022-12-24T23:57:07.976Z,9.48
2022-12-24T23:59:37.464Z,9.59
